Time;durP1;ratioP1;P1;durP2;ratioP2;P2;SDS_P1;SDS_P2;PMS_P1;PMS_P2;Temp;Humidity;BMP_temperature;BMP_pressure;BME280_temperature;BME280_humidity;BME280_pressure;Samples;Min_cycle;Max_cycle;Signal;HPM_P1;HPM_P2
2023/06/28 00:01:09;;;;;;;4.30;1.70;;;20.60;75.30;;;;;;5101163;28;20523;-73
2023/06/28 00:03:36;;;;;;;3.67;1.93;;;20.50;75.20;;;;;;5103514;28;20478;-73
2023/06/28 00:06:03;;;;;;;5.03;2.00;;;20.50;75.90;;;;;;5102224;28;20448;-74
2023/06/28 00:08:31;;;;;;;10.53;2.83;;;20.40;76.00;;;;;;5100137;28;20509;-73
2023/06/28 00:10:58;;;;;;;4.23;1.93;;;20.40;76.00;;;;;;5101648;28;20479;-73
2023/06/28 00:13:25;;;;;;;3.17;2.20;;;20.30;76.40;;;;;;5100296;28;20472;-73
2023/06/28 00:15:52;;;;;;;13.43;2.50;;;20.30;76.40;;;;;;5099429;28;20844;-74
2023/06/28 00:18:19;;;;;;;6.40;2.50;;;20.30;77.80;;;;;;5098361;28;20975;-73
2023/06/28 00:20:46;;;;;;;3.17;2.03;;;20.20;78.20;;;;;;5100442;28;20455;-73
2023/06/28 00:23:13;;;;;;;3.37;2.03;;;20.20;78.30;;;;;;5110415;28;20471;-73
2023/06/28 00:25:42;;;;;;;4.60;2.00;;;20.30;78.20;;;;;;5101618;28;20456;-74
2023/06/28 00:28:09;;;;;;;3.00;2.00;;;20.30;78.90;;;;;;5100021;28;20593;-74
2023/06/28 00:30:35;;;;;;;2.80;1.80;;;20.30;77.70;;;;;;5100183;28;20490;-74
2023/06/28 00:33:02;;;;;;;19.90;2.97;;;20.30;77.40;;;;;;5098641;28;20471;-73
2023/06/28 00:35:29;;;;;;;4.57;1.77;;;20.30;77.60;;;;;;5098076;28;20444;-73
2023/06/28 00:37:57;;;;;;;3.80;2.20;;;20.30;77.80;;;;;;5097036;28;20447;-74
2023/06/28 00:40:24;;;;;;;3.10;1.97;;;20.30;77.90;;;;;;5097015;28;20447;-73
2023/06/28 00:42:52;;;;;;;3.93;2.03;;;20.20;78.00;;;;;;5096454;28;20646;-73
2023/06/28 00:45:19;;;;;;;7.43;2.20;;;20.20;78.30;;;;;;5096986;28;20455;-74
2023/06/28 00:47:47;;;;;;;2.60;1.90;;;20.20;78.70;;;;;;5096652;28;20452;-74
2023/06/28 00:50:14;;;;;;;3.13;2.27;;;20.20;78.80;;;;;;5095845;28;20541;-74
2023/06/28 00:52:41;;;;;;;4.73;2.20;;;20.20;78.70;;;;;;5095844;28;20847;-73
2023/06/28 00:55:08;;;;;;;4.03;2.23;;;20.20;78.80;;;;;;5095650;28;20451;-74
2023/06/28 00:57:35;;;;;;;3.20;2.37;;;20.20;79.00;;;;;;5095870;28;20455;-73
2023/06/28 01:00:08;;;;;;;4.80;2.60;;;20.20;78.70;;;;;;5095563;28;20932;-74
2023/06/28 01:02:35;;;;;;;5.90;2.27;;;20.20;79.10;;;;;;5094462;28;20472;-73
2023/06/28 01:05:03;;;;;;;3.27;2.37;;;20.20;79.00;;;;;;5096001;28;20454;-74
2023/06/28 01:07:34;;;;;;;3.27;2.20;;;20.20;79.10;;;;;;5095364;28;20459;-73
2023/06/28 01:10:01;;;;;;;8.70;2.57;;;20.10;79.40;;;;;;5095588;28;20471;-74
2023/06/28 01:12:30;;;;;;;3.17;2.07;;;20.10;80.00;;;;;;5105877;28;20463;-73
2023/06/28 01:14:57;;;;;;;2.63;1.80;;;20.10;80.10;;;;;;5097398;28;20448;-73
2023/06/28 01:17:25;;;;;;;2.30;1.83;;;20.10;80.10;;;;;;5095394;28;20948;-74
2023/06/28 01:19:54;;;;;;;3.70;2.63;;;20.00;80.10;;;;;;5095153;28;20452;-74
2023/06/28 01:22:25;;;;;;;1.80;1.60;;;20.00;80.50;;;;;;5094053;28;20830;-73
2023/06/28 01:24:56;;;;;;;5.13;2.40;;;20.00;80.60;;;;;;5094850;28;20433;-74
2023/06/28 01:27:23;;;;;;;2.20;1.67;;;20.00;80.30;;;;;;5094597;28;20436;-74
2023/06/28 01:29:55;;;;;;;4.03;1.97;;;19.90;80.20;;;;;;5094958;28;20490;-74
2023/06/28 01:32:24;;;;;;;4.70;1.90;;;19.90;80.50;;;;;;5094362;28;20562;-73
2023/06/28 01:34:50;;;;;;;5.20;2.53;;;19.90;80.40;;;;;;5094712;28;20734;-73
2023/06/28 01:37:18;;;;;;;3.80;2.10;;;19.90;80.50;;;;;;5094973;28;20440;-74
2023/06/28 01:39:46;;;;;;;2.63;1.90;;;19.90;80.40;;;;;;5094560;28;20447;-73
2023/06/28 01:42:15;;;;;;;2.77;2.43;;;19.90;80.90;;;;;;5094818;28;20921;-73
2023/06/28 01:44:41;;;;;;;2.47;2.20;;;19.90;80.90;;;;;;5094301;28;20447;-74
2023/06/28 01:47:08;;;;;;;2.70;2.07;;;19.80;80.70;;;;;;5093578;28;20966;-74
2023/06/28 01:49:36;;;;;;;5.27;2.97;;;19.80;81.00;;;;;;5094861;28;20482;-74
2023/06/28 01:52:04;;;;;;;3.70;2.00;;;19.80;82.40;;;;;;5094664;28;20475;-73
2023/06/28 01:54:32;;;;;;;3.20;2.90;;;19.80;82.50;;;;;;5095456;28;20440;-73
2023/06/28 01:56:59;;;;;;;8.70;2.53;;;19.80;82.80;;;;;;5094255;28;20447;-74
2023/06/28 01:59:27;;;;;;;4.87;2.50;;;19.80;82.70;;;;;;5095218;28;20444;-74
2023/06/28 02:01:54;;;;;;;4.37;2.53;;;19.80;83.00;;;;;;5093839;28;20467;-73
2023/06/28 02:04:21;;;;;;;6.67;2.13;;;19.80;82.90;;;;;;5094421;28;20462;-73
2023/06/28 02:06:47;;;;;;;4.60;2.63;;;19.80;83.00;;;;;;5095034;28;20454;-74
2023/06/28 02:09:14;;;;;;;4.23;2.37;;;19.80;83.50;;;;;;5094939;28;20448;-74
2023/06/28 02:11:41;;;;;;;7.13;2.27;;;19.80;83.50;;;;;;5094026;28;20444;-73
2023/06/28 02:14:08;;;;;;;2.80;2.60;;;19.70;83.40;;;;;;5094037;28;20471;-73
2023/06/28 02:16:37;;;;;;;6.07;2.70;;;19.80;83.40;;;;;;5094254;28;20447;-74
2023/06/28 02:19:04;;;;;;;5.90;2.27;;;19.80;83.90;;;;;;5093785;28;20456;-74
2023/06/28 02:21:31;;;;;;;2.33;2.13;;;19.70;84.10;;;;;;5092456;28;20448;-73
2023/06/28 02:23:58;;;;;;;6.10;3.33;;;19.70;84.10;;;;;;5093589;28;20471;-73
2023/06/28 02:26:26;;;;;;;3.00;2.50;;;19.80;84.30;;;;;;5094117;28;20451;-74
2023/06/28 02:28:53;;;;;;;4.73;2.70;;;19.70;84.50;;;;;;5094011;28;20546;-74
2023/06/28 02:31:19;;;;;;;6.10;2.67;;;19.70;85.20;;;;;;5093503;28;20862;-73
2023/06/28 02:33:48;;;;;;;3.60;2.60;;;19.70;85.00;;;;;;5093672;28;20475;-74
2023/06/28 02:36:15;;;;;;;5.90;2.50;;;19.70;85.20;;;;;;5093898;28;20444;-74
2023/06/28 02:38:42;;;;;;;7.93;2.40;;;19.70;85.60;;;;;;5092612;28;20451;-74
2023/06/28 02:41:09;;;;;;;3.40;2.60;;;19.70;85.50;;;;;;5107659;28;20452;-74
2023/06/28 02:43:35;;;;;;;4.80;2.40;;;19.70;85.60;;;;;;5099719;28;20471;-74
2023/06/28 02:46:02;;;;;;;3.83;2.37;;;19.70;85.50;;;;;;5098010;28;20451;-74
2023/06/28 02:48:29;;;;;;;2.87;2.33;;;19.70;85.50;;;;;;5094984;28;20451;-74
2023/06/28 02:50:57;;;;;;;2.90;2.00;;;19.70;85.60;;;;;;5095137;28;20506;-74
2023/06/28 02:53:23;;;;;;;5.67;2.90;;;19.70;86.30;;;;;;5094702;28;20475;-73
2023/06/28 02:55:50;;;;;;;5.03;2.40;;;19.70;86.30;;;;;;5094322;28;20454;-74
2023/06/28 02:58:17;;;;;;;2.67;2.10;;;19.60;85.90;;;;;;5097251;28;20443;-74
2023/06/28 03:00:46;;;;;;;5.57;3.00;;;19.60;86.50;;;;;;5098097;28;20963;-73
2023/06/28 03:03:13;;;;;;;4.60;2.60;;;19.70;86.90;;;;;;5097910;28;20493;-74
2023/06/28 03:05:40;;;;;;;6.63;2.83;;;19.60;87.10;;;;;;5097835;28;20451;-73
2023/06/28 03:08:08;;;;;;;4.20;2.70;;;19.70;87.20;;;;;;5097753;28;20440;-74
2023/06/28 03:10:35;;;;;;;3.10;2.80;;;19.60;87.40;;;;;;5097192;28;20528;-73
2023/06/28 03:13:02;;;;;;;4.53;2.80;;;19.60;88.50;;;;;;5097217;28;20882;-73
2023/06/28 03:15:29;;;;;;;3.67;2.93;;;19.70;87.80;;;;;;5097582;28;20443;-74
2023/06/28 03:17:55;;;;;;;7.47;2.67;;;19.60;87.80;;;;;;5097216;28;20451;-73
2023/06/28 03:20:22;;;;;;;6.60;3.00;;;19.70;88.00;;;;;;5097483;28;20439;-73
2023/06/28 03:22:50;;;;;;;4.50;2.43;;;19.60;87.70;;;;;;5095735;28;20475;-72
2023/06/28 03:25:19;;;;;;;3.90;2.03;;;19.60;87.70;;;;;;5097367;28;20797;-73
2023/06/28 03:27:46;;;;;;;5.63;3.40;;;19.70;88.30;;;;;;5096460;28;20802;-73
2023/06/28 03:30:13;;;;;;;4.50;2.53;;;19.70;88.70;;;;;;5096587;28;20482;-73
2023/06/28 03:32:40;;;;;;;3.13;2.57;;;19.60;88.80;;;;;;5096587;28;20463;-73
2023/06/28 03:35:07;;;;;;;5.23;3.47;;;19.60;89.20;;;;;;5097071;28;20439;-73
2023/06/28 03:37:34;;;;;;;12.27;3.30;;;19.70;88.70;;;;;;5096810;28;20814;-73
2023/06/28 03:40:01;;;;;;;8.23;3.20;;;19.70;88.60;;;;;;5096431;28;20535;-73
2023/06/28 03:42:29;;;;;;;9.67;2.90;;;19.60;88.60;;;;;;5096666;28;20464;-73
2023/06/28 03:44:56;;;;;;;6.50;2.53;;;19.60;89.00;;;;;;5096670;28;20459;-73
2023/06/28 03:47:22;;;;;;;8.13;3.03;;;19.60;89.30;;;;;;5096565;28;20447;-72
2023/06/28 03:49:49;;;;;;;8.03;3.00;;;19.70;89.40;;;;;;5096744;28;20504;-72
2023/06/28 03:52:16;;;;;;;5.27;3.07;;;19.60;89.40;;;;;;5096854;28;20459;-72
2023/06/28 03:54:43;;;;;;;6.07;2.57;;;19.70;90.00;;;;;;5097046;28;20448;-72
2023/06/28 03:57:11;;;;;;;11.73;3.43;;;19.60;90.20;;;;;;5096781;28;20941;-73
2023/06/28 03:59:39;;;;;;;7.43;3.27;;;19.60;90.40;;;;;;5108072;28;20424;-72
2023/06/28 04:02:07;;;;;;;14.07;3.67;;;19.60;90.40;;;;;;5104437;28;20464;-72
2023/06/28 04:04:34;;;;;;;8.37;3.13;;;19.60;90.50;;;;;;5109178;28;20452;-74
2023/06/28 04:07:01;;;;;;;11.93;3.40;;;19.70;90.60;;;;;;5096836;28;20493;-73
2023/06/28 04:09:28;;;;;;;7.83;3.07;;;19.60;90.70;;;;;;5094274;28;20512;-73
2023/06/28 04:11:55;;;;;;;10.10;3.37;;;19.70;90.90;;;;;;5095918;28;20493;-72
2023/06/28 04:14:23;;;;;;;11.00;3.23;;;19.70;90.80;;;;;;5095643;28;20451;-72
2023/06/28 04:16:51;;;;;;;11.73;3.10;;;19.70;90.90;;;;;;5096003;28;20817;-73
2023/06/28 04:19:18;;;;;;;9.00;3.17;;;19.70;91.10;;;;;;5095608;28;20452;-73
2023/06/28 04:21:45;;;;;;;9.53;3.90;;;19.70;91.10;;;;;;5095681;28;20470;-70
2023/06/28 04:24:12;;;;;;;6.77;3.33;;;19.70;91.00;;;;;;5095736;28;20452;-71
2023/06/28 04:26:40;;;;;;;8.90;3.67;;;19.70;90.90;;;;;;5095819;28;20456;-73
2023/06/28 04:29:07;;;;;;;11.13;3.30;;;19.70;91.10;;;;;;5095677;28;20440;-72
2023/06/28 04:31:34;;;;;;;5.93;3.03;;;19.70;91.00;;;;;;5096272;28;20498;-72
2023/06/28 04:34:02;;;;;;;8.73;2.87;;;19.70;91.20;;;;;;5095940;28;20824;-72
2023/06/28 04:36:29;;;;;;;10.03;3.20;;;19.70;91.50;;;;;;5096008;28;20439;-72
2023/06/28 04:38:56;;;;;;;7.97;3.50;;;19.70;91.70;;;;;;5095839;28;20452;-72
2023/06/28 04:41:25;;;;;;;6.27;3.10;;;19.70;91.60;;;;;;5095687;28;20490;-71
2023/06/28 04:43:55;;;;;;;6.47;3.57;;;19.70;91.40;;;;;;5095517;28;20471;-72
2023/06/28 04:46:22;;;;;;;10.80;3.47;;;19.80;91.70;;;;;;5094526;28;20432;-73
2023/06/28 04:48:51;;;;;;;9.37;3.90;;;19.80;91.80;;;;;;5095355;28;20451;-73
2023/06/28 04:51:19;;;;;;;15.67;3.87;;;19.80;91.40;;;;;;5095252;28;20511;-73
2023/06/28 04:53:47;;;;;;;15.10;3.47;;;19.80;90.80;;;;;;5094202;28;20464;-72
2023/06/28 04:56:14;;;;;;;7.00;3.70;;;19.80;90.70;;;;;;5096125;28;20460;-73
2023/06/28 04:58:41;;;;;;;6.53;3.77;;;19.90;91.00;;;;;;5108126;28;20451;-72
2023/06/28 05:01:10;;;;;;;10.10;3.90;;;19.90;90.90;;;;;;5102603;28;20802;-72
2023/06/28 05:03:38;;;;;;;15.13;4.23;;;19.90;90.90;;;;;;5098716;28;20473;-72
2023/06/28 05:06:07;;;;;;;15.00;4.73;;;19.80;90.60;;;;;;5096747;28;20450;-72
2023/06/28 05:08:35;;;;;;;12.93;4.60;;;19.90;90.70;;;;;;5096438;28;20452;-72
2023/06/28 05:11:02;;;;;;;14.70;3.90;;;19.90;90.60;;;;;;5096601;28;20478;-71
2023/06/28 05:13:29;;;;;;;15.87;5.30;;;19.90;90.70;;;;;;5096313;28;20475;-71
2023/06/28 05:15:56;;;;;;;7.23;4.30;;;19.90;90.80;;;;;;5095302;28;20448;-72
2023/06/28 05:18:23;;;;;;;9.17;4.00;;;19.90;90.60;;;;;;5094790;28;20451;-71
2023/06/28 05:20:50;;;;;;;14.93;3.40;;;19.90;90.50;;;;;;5094170;28;20463;-72
2023/06/28 05:23:20;;;;;;;13.63;3.47;;;19.90;90.50;;;;;;5094638;28;20518;-72
2023/06/28 05:25:48;;;;;;;9.57;3.17;;;19.90;90.30;;;;;;5095303;28;20443;-72
2023/06/28 05:28:16;;;;;;;7.97;3.23;;;20.00;90.20;;;;;;5093594;28;20451;-73
2023/06/28 05:30:45;;;;;;;11.33;2.97;;;20.10;90.30;;;;;;5076440;28;20566;-72
2023/06/28 05:33:12;;;;;;;12.27;3.20;;;20.10;90.60;;;;;;5094303;28;20467;-72
2023/06/28 05:35:39;;;;;;;19.30;4.40;;;20.20;90.40;;;;;;5094444;28;20494;-72
2023/06/28 05:38:06;;;;;;;16.93;4.93;;;20.20;90.10;;;;;;5094401;28;20447;-73
2023/06/28 05:40:34;;;;;;;14.63;3.73;;;20.20;89.60;;;;;;5094080;28;20451;-72
2023/06/28 05:43:02;;;;;;;18.60;3.77;;;20.20;89.70;;;;;;5094195;28;20462;-72
2023/06/28 05:45:30;;;;;;;12.73;3.97;;;20.20;89.30;;;;;;5094503;28;20448;-72
2023/06/28 05:47:59;;;;;;;7.43;3.40;;;20.20;88.10;;;;;;5094929;28;20448;-71
2023/06/28 05:50:26;;;;;;;16.93;4.00;;;20.20;88.40;;;;;;5093038;28;20501;-70
2023/06/28 05:52:53;;;;;;;14.33;3.47;;;20.20;89.10;;;;;;5094702;28;20478;-71
2023/06/28 05:55:20;;;;;;;15.17;3.47;;;20.20;87.70;;;;;;5094645;28;20470;-71
2023/06/28 05:57:47;;;;;;;13.90;3.57;;;20.10;87.50;;;;;;5094395;28;20448;-71
2023/06/28 06:00:16;;;;;;;7.97;3.40;;;20.10;87.70;;;;;;5094153;28;20538;-71
2023/06/28 06:02:43;;;;;;;13.07;3.90;;;20.10;88.20;;;;;;5094286;28;20517;-71
2023/06/28 06:05:13;;;;;;;13.23;3.20;;;20.10;89.10;;;;;;5094008;28;20455;-71
2023/06/28 06:07:40;;;;;;;16.30;3.97;;;20.10;89.50;;;;;;5094186;28;20522;-71
2023/06/28 06:10:08;;;;;;;10.23;3.40;;;20.10;90.10;;;;;;5094264;28;20447;-71
2023/06/28 06:12:37;;;;;;;10.83;3.00;;;20.20;90.40;;;;;;5093135;28;20537;-71
2023/06/28 06:15:05;;;;;;;15.73;3.70;;;20.20;90.50;;;;;;5093958;28;20532;-71
2023/06/28 06:17:33;;;;;;;11.53;4.27;;;20.20;90.40;;;;;;5093843;28;20451;-72
2023/06/28 06:20:00;;;;;;;9.83;3.20;;;20.20;89.70;;;;;;5093659;28;20443;-70
2023/06/28 06:22:27;;;;;;;6.00;2.70;;;20.10;88.80;;;;;;5093653;28;20466;-71
2023/06/28 06:24:54;;;;;;;6.60;3.40;;;20.20;88.60;;;;;;5093133;28;20452;-71
2023/06/28 06:27:20;;;;;;;10.43;3.03;;;20.20;87.90;;;;;;5093747;28;20453;-71
2023/06/28 06:29:47;;;;;;;5.77;3.00;;;20.10;88.20;;;;;;5092297;28;20948;-71
2023/06/28 06:32:14;;;;;;;6.00;2.57;;;20.10;88.70;;;;;;5096160;28;20483;-70
2023/06/28 06:34:42;;;;;;;4.40;2.10;;;20.10;88.00;;;;;;5099964;28;20959;-71
2023/06/28 06:37:12;;;;;;;4.73;3.03;;;20.10;87.80;;;;;;5100551;28;20871;-71
2023/06/28 06:39:40;;;;;;;12.23;3.60;;;20.00;88.00;;;;;;5100025;28;20456;-71
2023/06/28 06:42:07;;;;;;;13.03;3.70;;;20.00;88.50;;;;;;5100130;28;20470;-71
2023/06/28 06:44:33;;;;;;;10.57;2.57;;;20.10;89.70;;;;;;5100385;28;20471;-72
2023/06/28 06:47:00;;;;;;;9.07;2.97;;;20.10;90.40;;;;;;5100188;28;20443;-71
2023/06/28 06:49:27;;;;;;;6.73;3.10;;;20.20;90.60;;;;;;5100378;28;20443;-71
2023/06/28 06:51:55;;;;;;;4.90;3.33;;;20.30;90.30;;;;;;5109195;28;20555;-71
2023/06/28 06:54:24;;;;;;;5.97;3.20;;;20.40;90.10;;;;;;5101531;28;20443;-71
2023/06/28 06:56:51;;;;;;;5.70;3.70;;;20.40;89.60;;;;;;5106371;28;20547;-72
2023/06/28 06:59:19;;;;;;;5.57;2.87;;;20.50;90.00;;;;;;5099955;28;20508;-72
2023/06/28 07:01:46;;;;;;;6.07;2.40;;;20.50;90.30;;;;;;5100162;28;20447;-72
2023/06/28 07:04:13;;;;;;;6.03;2.83;;;20.50;90.10;;;;;;5100107;28;20443;-72
2023/06/28 07:06:40;;;;;;;7.73;3.90;;;20.50;89.50;;;;;;5100117;28;20443;-71
2023/06/28 07:09:08;;;;;;;9.70;3.33;;;20.50;89.50;;;;;;5099775;28;20966;-72
2023/06/28 07:11:35;;;;;;;3.13;2.20;;;20.60;88.70;;;;;;5098680;28;20483;-71
2023/06/28 07:14:02;;;;;;;7.80;3.03;;;20.60;88.50;;;;;;5100023;28;20945;-72
2023/06/28 07:16:29;;;;;;;9.30;3.10;;;20.60;88.40;;;;;;5109958;28;20464;-72
2023/06/28 07:18:55;;;;;;;5.37;2.70;;;20.70;88.50;;;;;;5104413;28;20462;-72
2023/06/28 07:21:22;;;;;;;6.67;2.93;;;20.80;88.20;;;;;;5103323;28;20435;-72
2023/06/28 07:23:49;;;;;;;8.50;3.03;;;20.80;87.50;;;;;;5101602;28;20467;-72
2023/06/28 07:26:18;;;;;;;5.10;2.10;;;20.80;86.70;;;;;;5100206;28;20932;-72
2023/06/28 07:28:44;;;;;;;7.73;2.80;;;20.90;86.10;;;;;;5099685;28;20898;-71
2023/06/28 07:31:11;;;;;;;4.70;2.37;;;20.90;85.60;;;;;;5100150;28;20447;-72
2023/06/28 07:33:38;;;;;;;4.00;2.40;;;20.90;84.80;;;;;;5099942;28;20470;-72
2023/06/28 07:36:05;;;;;;;4.87;2.40;;;20.90;84.00;;;;;;5099727;28;20458;-72
2023/06/28 07:38:32;;;;;;;4.90;2.47;;;20.90;82.40;;;;;;5100077;28;20447;-72
2023/06/28 07:40:59;;;;;;;6.37;2.50;;;21.00;82.10;;;;;;5100024;28;20824;-72
2023/06/28 07:43:27;;;;;;;6.93;2.57;;;21.00;81.20;;;;;;5097747;28;20479;-72
2023/06/28 07:45:58;;;;;;;8.67;3.17;;;21.10;80.70;;;;;;5096676;28;20474;-72
2023/06/28 07:48:26;;;;;;;8.30;3.23;;;21.10;80.70;;;;;;5095477;28;20442;-72
2023/06/28 07:50:53;;;;;;;6.63;2.67;;;21.10;81.10;;;;;;5096511;28;20483;-72
2023/06/28 07:53:20;;;;;;;6.93;2.40;;;21.10;81.30;;;;;;5095060;28;20587;-71
2023/06/28 07:55:47;;;;;;;8.40;2.37;;;21.10;80.80;;;;;;5096410;28;20439;-72
2023/06/28 07:58:14;;;;;;;6.83;2.10;;;21.10;80.10;;;;;;5096490;28;20444;-72
2023/06/28 08:00:42;;;;;;;6.37;2.53;;;21.20;79.00;;;;;;5096545;28;20448;-72
2023/06/28 08:03:09;;;;;;;6.83;2.73;;;21.20;78.20;;;;;;5096461;28;20538;-72
2023/06/28 08:05:36;;;;;;;7.93;2.60;;;21.20;77.70;;;;;;5096306;28;20450;-72
2023/06/28 08:08:03;;;;;;;7.53;2.60;;;21.20;77.70;;;;;;5096091;28;20447;-72
2023/06/28 08:10:30;;;;;;;3.60;1.70;;;21.20;78.20;;;;;;5095390;28;20482;-72
2023/06/28 08:12:57;;;;;;;9.00;2.80;;;21.30;78.20;;;;;;5096706;28;20558;-71
2023/06/28 08:15:24;;;;;;;6.93;2.90;;;21.30;77.80;;;;;;5098169;28;20456;-72
2023/06/28 08:17:52;;;;;;;6.13;3.13;;;21.30;77.40;;;;;;5096949;28;20952;-72
2023/06/28 08:20:19;;;;;;;6.27;2.83;;;21.40;77.60;;;;;;5099138;28;20435;-72
2023/06/28 08:22:45;;;;;;;4.07;2.20;;;21.50;77.80;;;;;;5098027;28;20460;-72
2023/06/28 08:25:12;;;;;;;4.50;2.17;;;21.60;77.30;;;;;;5101838;28;20450;-72
2023/06/28 08:27:39;;;;;;;2.90;2.20;;;21.70;76.60;;;;;;5102390;28;20443;-72
2023/06/28 08:30:08;;;;;;;3.20;1.83;;;21.70;74.70;;;;;;5102536;28;20975;-72
2023/06/28 08:32:35;;;;;;;4.37;2.30;;;21.70;74.30;;;;;;5102517;28;20509;-73
2023/06/28 08:35:04;;;;;;;6.07;2.77;;;21.60;72.90;;;;;;5102049;28;20448;-73
2023/06/28 08:37:34;;;;;;;6.00;2.60;;;21.50;74.10;;;;;;5101591;28;20447;-72
2023/06/28 08:40:01;;;;;;;5.70;1.93;;;21.40;74.00;;;;;;5100328;28;20543;-72
2023/06/28 08:42:29;;;;;;;7.50;3.20;;;21.30;74.60;;;;;;5099949;28;20459;-72
2023/06/28 08:44:57;;;;;;;3.80;2.40;;;21.30;75.40;;;;;;5099706;28;20447;-72
2023/06/28 08:47:28;;;;;;;6.37;2.50;;;21.30;76.00;;;;;;5098224;28;20459;-72
2023/06/28 08:49:56;;;;;;;5.87;2.53;;;21.40;76.60;;;;;;5098604;28;20432;-72
2023/06/28 08:52:26;;;;;;;6.07;2.20;;;21.40;77.30;;;;;;5097615;28;20479;-73
2023/06/28 08:54:53;;;;;;;4.87;2.87;;;21.40;77.90;;;;;;5096273;28;20439;-72
2023/06/28 08:57:21;;;;;;;4.67;2.80;;;21.50;78.20;;;;;;5096289;28;20448;-73
2023/06/28 08:59:48;;;;;;;9.87;2.90;;;21.50;78.50;;;;;;5096535;28;20451;-72
2023/06/28 09:02:17;;;;;;;4.53;2.80;;;21.50;78.20;;;;;;5096846;28;20460;-72
2023/06/28 09:04:45;;;;;;;7.10;2.50;;;21.60;77.50;;;;;;5095633;28;21018;-72
2023/06/28 09:07:15;;;;;;;4.30;2.40;;;21.60;76.90;;;;;;5096237;28;20542;-73
2023/06/28 09:09:47;;;;;;;5.87;3.23;;;21.70;75.40;;;;;;5095701;28;20452;-72
2023/06/28 09:12:15;;;;;;;4.50;2.50;;;21.70;75.30;;;;;;5095849;28;20487;-72
2023/06/28 09:14:41;;;;;;;3.30;2.37;;;21.80;75.00;;;;;;5095853;28;20444;-72
2023/06/28 09:17:08;;;;;;;7.73;2.10;;;21.80;75.00;;;;;;5095542;28;20945;-73
2023/06/28 09:19:36;;;;;;;8.03;3.00;;;21.90;74.70;;;;;;5093992;28;20456;-72
2023/06/28 09:22:03;;;;;;;4.97;2.80;;;21.90;73.50;;;;;;5095117;28;20460;-72
2023/06/28 09:24:34;;;;;;;5.73;2.13;;;22.00;73.20;;;;;;5095449;28;20455;-72
2023/06/28 09:27:04;;;;;;;6.00;2.43;;;22.10;73.20;;;;;;5093965;28;20512;-73
2023/06/28 09:29:31;;;;;;;4.80;2.20;;;22.30;70.40;;;;;;5101943;28;20444;-72
2023/06/28 09:32:00;;;;;;;3.10;2.10;;;22.30;69.60;;;;;;5103201;28;20487;-72
2023/06/28 09:34:27;;;;;;;4.47;2.30;;;22.50;69.40;;;;;;5100813;28;20451;-73
2023/06/28 09:36:54;;;;;;;9.30;2.50;;;22.60;68.40;;;;;;5096442;28;20460;-73
2023/06/28 09:39:22;;;;;;;7.73;2.53;;;22.70;68.70;;;;;;5095577;28;20451;-73
2023/06/28 09:41:50;;;;;;;5.37;2.40;;;22.70;68.00;;;;;;5095891;28;20444;-73
2023/06/28 09:44:27;;;;;;;7.67;2.70;;;22.80;67.70;;;;;;5104201;28;20447;-72
2023/06/28 09:47:01;;;;;;;5.70;2.20;;;22.90;67.10;;;;;;5097667;28;20432;-73
2023/06/28 09:49:28;;;;;;;5.70;1.87;;;23.10;67.20;;;;;;5095700;28;20436;-73
2023/06/28 09:52:00;;;;;;;5.37;2.10;;;23.10;66.80;;;;;;5095605;28;20471;-72
2023/06/28 09:54:31;;;;;;;5.20;2.53;;;23.20;65.00;;;;;;5093317;28;20501;-73
2023/06/28 09:56:59;;;;;;;3.07;2.27;;;23.20;65.60;;;;;;5094262;28;20444;-73
2023/06/28 09:59:29;;;;;;;4.60;2.10;;;23.20;66.40;;;;;;5093246;28;20451;-73
2023/06/28 10:01:58;;;;;;;5.73;2.70;;;23.20;64.50;;;;;;5094972;28;20464;-72
2023/06/28 10:04:28;;;;;;;5.30;2.20;;;23.20;65.00;;;;;;5093702;28;20822;-73
2023/06/28 10:06:59;;;;;;;6.90;2.57;;;23.20;65.80;;;;;;5093941;28;20493;-73
2023/06/28 10:09:28;;;;;;;7.83;2.37;;;23.30;65.00;;;;;;5094458;28;20849;-73
2023/06/28 10:11:58;;;;;;;5.30;2.47;;;23.30;65.80;;;;;;5094261;28;20460;-72
2023/06/28 10:14:31;;;;;;;6.17;2.40;;;23.50;65.30;;;;;;5094400;28;20473;-73
2023/06/28 10:17:00;;;;;;;4.80;2.50;;;23.60;64.40;;;;;;5093722;28;20853;-73
2023/06/28 10:19:29;;;;;;;7.07;2.90;;;23.80;63.90;;;;;;5093739;28;20483;-73
2023/06/28 10:21:57;;;;;;;3.93;2.43;;;23.90;62.10;;;;;;5092612;28;20988;-73
2023/06/28 10:24:29;;;;;;;5.83;2.53;;;24.10;61.70;;;;;;5094018;28;20448;-72
2023/06/28 10:26:55;;;;;;;4.83;1.80;;;24.40;62.30;;;;;;5093329;28;20452;-73
2023/06/28 10:29:22;;;;;;;6.50;2.90;;;24.70;59.50;;;;;;5093782;28;20447;-73
2023/06/28 10:31:52;;;;;;;9.17;3.00;;;25.00;58.30;;;;;;5093670;28;20444;-73
2023/06/28 10:34:20;;;;;;;7.53;2.47;;;25.20;57.80;;;;;;5093739;28;20485;-73
2023/06/28 10:36:47;;;;;;;7.83;3.17;;;25.40;57.30;;;;;;5093707;28;20456;-73
2023/06/28 10:39:14;;;;;;;4.20;2.73;;;25.70;55.80;;;;;;5093882;28;20824;-73
2023/06/28 10:41:42;;;;;;;6.33;2.63;;;25.80;55.20;;;;;;5094822;28;20451;-73
2023/06/28 10:44:09;;;;;;;3.13;1.60;;;25.90;54.40;;;;;;5094642;28;20492;-73
2023/06/28 10:46:36;;;;;;;4.53;2.13;;;26.00;54.10;;;;;;5095142;28;20444;-72
2023/06/28 10:49:05;;;;;;;8.20;3.47;;;26.10;52.90;;;;;;5095061;28;20448;-73
2023/06/28 10:51:35;;;;;;;5.63;2.60;;;26.30;52.80;;;;;;5094275;28;20448;-73
2023/06/28 10:54:09;;;;;;;10.30;2.93;;;26.40;53.50;;;;;;5094373;28;20558;-72
2023/06/28 10:56:38;;;;;;;6.13;2.40;;;26.60;52.30;;;;;;5093774;28;20535;-73
2023/06/28 10:59:07;;;;;;;3.53;2.47;;;26.80;52.40;;;;;;5093629;28;20471;-73
2023/06/28 11:01:37;;;;;;;5.27;2.23;;;27.20;51.50;;;;;;5093408;28;20452;-73
2023/06/28 11:04:18;;;;;;;6.50;3.10;;;27.50;49.90;;;;;;5093721;28;20448;-73
2023/06/28 11:06:46;;;;;;;6.30;2.90;;;27.60;48.80;;;;;;5093639;28;20428;-73
2023/06/28 11:09:16;;;;;;;3.60;2.40;;;27.70;47.90;;;;;;5093208;28;20444;-73
2023/06/28 11:11:55;;;;;;;6.93;2.90;;;27.80;48.20;;;;;;5092995;28;20455;-73
2023/06/28 11:14:23;;;;;;;8.53;2.80;;;27.70;48.40;;;;;;5093302;28;20467;-73
2023/06/28 11:16:51;;;;;;;5.60;2.40;;;27.60;47.80;;;;;;5093401;28;20452;-73
2023/06/28 11:19:22;;;;;;;7.83;2.60;;;27.60;48.00;;;;;;5094499;28;20462;-73
2023/06/28 11:21:56;;;;;;;5.33;2.03;;;27.70;48.20;;;;;;5097099;28;20450;-73
2023/06/28 11:24:42;;;;;;;5.23;2.50;;;27.70;48.40;;;;;;5095631;28;20799;-73
2023/06/28 11:27:11;;;;;;;6.77;2.17;;;27.80;48.60;;;;;;5097060;28;20855;-73
2023/06/28 11:29:53;;;;;;;7.63;3.20;;;27.80;48.50;;;;;;5096867;28;20516;-73
2023/06/28 11:32:24;;;;;;;7.00;2.70;;;27.90;48.00;;;;;;5096341;28;20463;-73
2023/06/28 11:34:53;;;;;;;3.40;2.43;;;27.90;46.90;;;;;;5096686;28;20909;-73
2023/06/28 11:37:22;;;;;;;7.00;2.23;;;27.80;46.60;;;;;;5097756;28;20459;-73
2023/06/28 11:39:49;;;;;;;9.17;2.93;;;27.90;48.30;;;;;;5109679;28;20447;-73
2023/06/28 11:42:17;;;;;;;7.47;2.67;;;27.90;49.20;;;;;;5102603;28;20474;-74
2023/06/28 11:44:45;;;;;;;4.93;2.33;;;28.00;49.60;;;;;;5099257;28;20447;-74
2023/06/28 11:47:12;;;;;;;5.77;2.63;;;28.00;47.70;;;;;;5097854;28;20455;-74
2023/06/28 11:49:40;;;;;;;4.43;3.10;;;28.00;47.60;;;;;;5097332;28;20949;-73
2023/06/28 11:52:09;;;;;;;6.53;2.70;;;27.80;47.90;;;;;;5096878;28;20471;-73
2023/06/28 11:54:36;;;;;;;6.10;3.17;;;27.90;47.70;;;;;;5096184;28;20553;-73
2023/06/28 11:57:04;;;;;;;5.37;2.70;;;28.00;48.60;;;;;;5097035;28;20448;-74
2023/06/28 11:59:30;;;;;;;7.17;2.80;;;28.20;48.50;;;;;;5096963;28;20471;-73
2023/06/28 12:02:03;;;;;;;8.63;2.93;;;28.40;47.10;;;;;;5096543;28;20475;-73
2023/06/28 12:04:32;;;;;;;9.53;3.27;;;28.70;47.40;;;;;;5096498;28;20425;-73
2023/06/28 12:07:01;;;;;;;5.90;3.37;;;28.90;46.20;;;;;;5096253;28;20450;-74
2023/06/28 12:09:30;;;;;;;8.77;3.60;;;28.90;45.00;;;;;;5096278;28;20447;-73
2023/06/28 12:11:59;;;;;;;8.70;3.10;;;29.10;46.50;;;;;;5096164;28;20464;-73
2023/06/28 12:14:27;;;;;;;7.30;3.30;;;29.10;44.00;;;;;;5096047;28;20479;-73
2023/06/28 12:16:54;;;;;;;8.80;3.13;;;29.60;46.40;;;;;;5094804;28;20487;-73
2023/06/28 12:19:21;;;;;;;10.03;3.03;;;30.20;43.80;;;;;;5095703;28;20467;-73
2023/06/28 12:21:48;;;;;;;7.47;3.20;;;30.60;41.40;;;;;;5095937;28;20454;-73
2023/06/28 12:24:17;;;;;;;9.10;3.47;;;31.00;41.10;;;;;;5095437;28;20448;-74
2023/06/28 12:26:49;;;;;;;8.17;3.17;;;31.40;39.90;;;;;;5095706;28;21013;-74
2023/06/28 12:29:18;;;;;;;5.57;2.70;;;31.80;39.60;;;;;;5095797;28;20447;-74
2023/06/28 12:31:47;;;;;;;6.20;3.00;;;32.20;38.50;;;;;;5097181;28;20473;-71
2023/06/28 12:34:22;;;;;;;11.10;4.27;;;32.40;37.90;;;;;;5108336;28;20490;-71
2023/06/28 12:36:51;;;;;;;14.00;3.87;;;32.00;37.30;;;;;;5105575;28;20442;-71
2023/06/28 12:39:22;;;;;;;8.13;3.63;;;31.70;37.80;;;;;;5097537;28;20940;-71
2023/06/28 12:42:08;;;;;;;9.27;3.10;;;31.50;38.60;;;;;;5095781;28;20838;-71
2023/06/28 12:44:49;;;;;;;7.90;3.30;;;31.20;37.90;;;;;;5095161;28;20446;-71
2023/06/28 12:47:16;;;;;;;8.90;3.83;;;30.80;39.20;;;;;;5095511;28;20436;-72
2023/06/28 12:49:44;;;;;;;5.57;2.60;;;30.60;40.00;;;;;;5095274;28;20458;-72